sensor_id;sensor_type;location;lat;lon;timestamp;P1;durP1;ratioP1;P2;durP2;ratioP2
7585;SDS011;12459;42.646;23.292;2023-04-06T00:12:35;3.90;;;3.60;;
7585;SDS011;12459;42.646;23.292;2023-04-06T00:27:37;3.30;;;3.00;;
7585;SDS011;12459;42.646;23.292;2023-04-06T00:42:40;3.20;;;2.90;;
7585;SDS011;12459;42.646;23.292;2023-04-06T00:57:42;3.53;;;3.23;;
7585;SDS011;12459;42.646;23.292;2023-04-06T01:12:44;3.30;;;3.00;;
7585;SDS011;12459;42.646;23.292;2023-04-06T01:27:46;3.87;;;3.57;;
7585;SDS011;12459;42.646;23.292;2023-04-06T01:42:48;3.70;;;3.40;;
7585;SDS011;12459;42.646;23.292;2023-04-06T01:57:49;3.67;;;3.37;;
7585;SDS011;12459;42.646;23.292;2023-04-06T02:12:51;3.93;;;3.63;;
7585;SDS011;12459;42.646;23.292;2023-04-06T02:27:53;3.97;;;3.67;;
7585;SDS011;12459;42.646;23.292;2023-04-06T02:42:55;3.37;;;3.07;;
7585;SDS011;12459;42.646;23.292;2023-04-06T02:57:57;4.07;;;3.77;;
7585;SDS011;12459;42.646;23.292;2023-04-06T03:12:59;3.37;;;3.07;;
7585;SDS011;12459;42.646;23.292;2023-04-06T03:28:01;3.47;;;3.17;;
7585;SDS011;12459;42.646;23.292;2023-04-06T03:43:03;3.60;;;3.30;;
7585;SDS011;12459;42.646;23.292;2023-04-06T03:58:05;3.33;;;3.03;;
7585;SDS011;12459;42.646;23.292;2023-04-06T04:13:07;3.07;;;2.80;;
7585;SDS011;12459;42.646;23.292;2023-04-06T04:28:09;4.10;;;3.80;;
7585;SDS011;12459;42.646;23.292;2023-04-06T04:43:10;3.93;;;3.63;;
7585;SDS011;12459;42.646;23.292;2023-04-06T04:58:12;3.77;;;3.47;;
7585;SDS011;12459;42.646;23.292;2023-04-06T05:13:17;3.93;;;3.63;;
7585;SDS011;12459;42.646;23.292;2023-04-06T05:28:19;4.37;;;4.07;;
7585;SDS011;12459;42.646;23.292;2023-04-06T05:43:21;4.27;;;3.97;;
7585;SDS011;12459;42.646;23.292;2023-04-06T05:58:23;4.17;;;3.87;;
7585;SDS011;12459;42.646;23.292;2023-04-06T06:13:25;3.90;;;3.60;;
7585;SDS011;12459;42.646;23.292;2023-04-06T06:28:27;4.77;;;4.47;;
7585;SDS011;12459;42.646;23.292;2023-04-06T06:43:28;4.10;;;3.80;;
7585;SDS011;12459;42.646;23.292;2023-04-06T06:58:30;4.57;;;4.27;;
7585;SDS011;12459;42.646;23.292;2023-04-06T07:13:32;5.27;;;4.93;;
7585;SDS011;12459;42.646;23.292;2023-04-06T07:28:34;3.70;;;3.40;;
7585;SDS011;12459;42.646;23.292;2023-04-06T07:43:36;4.20;;;3.90;;
7585;SDS011;12459;42.646;23.292;2023-04-06T07:58:37;5.93;;;5.53;;
7585;SDS011;12459;42.646;23.292;2023-04-06T08:29:06;6.03;;;5.63;;
7585;SDS011;12459;42.646;23.292;2023-04-06T08:44:10;5.70;;;5.30;;
7585;SDS011;12459;42.646;23.292;2023-04-06T08:59:13;6.63;;;6.23;;
7585;SDS011;12459;42.646;23.292;2023-04-06T09:14:15;6.33;;;5.93;;
7585;SDS011;12459;42.646;23.292;2023-04-06T09:29:21;7.73;;;7.27;;
7585;SDS011;12459;42.646;23.292;2023-04-06T09:44:28;6.23;;;5.83;;
7585;SDS011;12459;42.646;23.292;2023-04-06T10:14:51;7.90;;;7.40;;
7585;SDS011;12459;42.646;23.292;2023-04-06T10:29:53;7.17;;;6.77;;
7585;SDS011;12459;42.646;23.292;2023-04-06T10:44:55;7.57;;;7.10;;
7585;SDS011;12459;42.646;23.292;2023-04-06T10:59:57;7.40;;;7.00;;
7585;SDS011;12459;42.646;23.292;2023-04-06T11:15:00;5.57;;;5.20;;
7585;SDS011;12459;42.646;23.292;2023-04-06T11:30:07;7.20;;;6.80;;
7585;SDS011;12459;42.646;23.292;2023-04-06T11:45:09;7.70;;;7.20;;
7585;SDS011;12459;42.646;23.292;2023-04-06T12:00:17;6.70;;;6.30;;
7585;SDS011;12459;42.646;23.292;2023-04-06T12:15:19;7.90;;;7.40;;
7585;SDS011;12459;42.646;23.292;2023-04-06T12:30:21;6.90;;;6.50;;
7585;SDS011;12459;42.646;23.292;2023-04-06T12:45:22;7.13;;;6.73;;
7585;SDS011;12459;42.646;23.292;2023-04-06T13:00:24;6.70;;;6.30;;
7585;SDS011;12459;42.646;23.292;2023-04-06T13:15:26;6.53;;;6.13;;
7585;SDS011;12459;42.646;23.292;2023-04-06T13:30:28;7.50;;;7.10;;
7585;SDS011;12459;42.646;23.292;2023-04-06T13:45:30;7.00;;;6.60;;
7585;SDS011;12459;42.646;23.292;2023-04-06T14:00:32;6.53;;;6.13;;
7585;SDS011;12459;42.646;23.292;2023-04-06T14:15:34;6.47;;;6.07;;
7585;SDS011;12459;42.646;23.292;2023-04-06T14:30:36;6.90;;;6.50;;
7585;SDS011;12459;42.646;23.292;2023-04-06T14:45:39;5.83;;;5.43;;
7585;SDS011;12459;42.646;23.292;2023-04-06T15:00:41;6.70;;;6.30;;
7585;SDS011;12459;42.646;23.292;2023-04-06T15:15:43;4.70;;;4.40;;
7585;SDS011;12459;42.646;23.292;2023-04-06T15:30:45;6.17;;;5.77;;
7585;SDS011;12459;42.646;23.292;2023-04-06T15:45:47;6.07;;;5.67;;
7585;SDS011;12459;42.646;23.292;2023-04-06T16:00:49;6.40;;;6.00;;
7585;SDS011;12459;42.646;23.292;2023-04-06T16:15:50;5.50;;;5.10;;
7585;SDS011;12459;42.646;23.292;2023-04-06T16:30:52;5.57;;;5.17;;
7585;SDS011;12459;42.646;23.292;2023-04-06T16:45:54;5.07;;;4.77;;
7585;SDS011;12459;42.646;23.292;2023-04-06T17:00:56;5.17;;;4.87;;
7585;SDS011;12459;42.646;23.292;2023-04-06T17:16:03;5.23;;;4.87;;
7585;SDS011;12459;42.646;23.292;2023-04-06T17:31:08;4.23;;;3.93;;
7585;SDS011;12459;42.646;23.292;2023-04-06T17:46:11;5.87;;;5.47;;
7585;SDS011;12459;42.646;23.292;2023-04-06T18:01:13;5.30;;;4.93;;
7585;SDS011;12459;42.646;23.292;2023-04-06T18:16:16;5.77;;;5.37;;
7585;SDS011;12459;42.646;23.292;2023-04-06T18:31:20;5.43;;;5.03;;
7585;SDS011;12459;42.646;23.292;2023-04-06T18:46:22;4.70;;;4.40;;
7585;SDS011;12459;42.646;23.292;2023-04-06T19:01:26;5.47;;;5.10;;
7585;SDS011;12459;42.646;23.292;2023-04-06T19:16:29;5.43;;;5.03;;
7585;SDS011;12459;42.646;23.292;2023-04-06T19:31:31;5.23;;;4.87;;
7585;SDS011;12459;42.646;23.292;2023-04-06T19:46:32;5.20;;;4.83;;
7585;SDS011;12459;42.646;23.292;2023-04-06T20:01:34;5.37;;;4.97;;
7585;SDS011;12459;42.646;23.292;2023-04-06T20:16:36;5.27;;;4.93;;
7585;SDS011;12459;42.646;23.292;2023-04-06T20:31:38;4.87;;;4.57;;
7585;SDS011;12459;42.646;23.292;2023-04-06T20:46:40;4.73;;;4.43;;
7585;SDS011;12459;42.646;23.292;2023-04-06T21:01:43;4.47;;;4.17;;
7585;SDS011;12459;42.646;23.292;2023-04-06T21:16:45;4.83;;;4.53;;
7585;SDS011;12459;42.646;23.292;2023-04-06T21:31:47;5.57;;;5.17;;
7585;SDS011;12459;42.646;23.292;2023-04-06T21:46:50;5.17;;;4.87;;
7585;SDS011;12459;42.646;23.292;2023-04-06T22:01:52;6.20;;;5.80;;
7585;SDS011;12459;42.646;23.292;2023-04-06T22:16:57;4.97;;;4.67;;
7585;SDS011;12459;42.646;23.292;2023-04-06T22:31:58;5.17;;;4.87;;
7585;SDS011;12459;42.646;23.292;2023-04-06T22:47:02;5.00;;;4.70;;
7585;SDS011;12459;42.646;23.292;2023-04-06T23:02:04;5.03;;;4.73;;
7585;SDS011;12459;42.646;23.292;2023-04-06T23:17:06;4.73;;;4.43;;
7585;SDS011;12459;42.646;23.292;2023-04-06T23:32:08;5.40;;;5.00;;
7585;SDS011;12459;42.646;23.292;2023-04-06T23:47:11;4.93;;;4.63;;
